Nationale Nord-Est Rombas (57) - H

Date : 07/04/2013
Distance : 3,600 km

Place Nom Licence Catégorie Club Temps min/km CN à J-60 Points Différence Nouveau CN
1 VAGNER Christine 3651 D60 5702LO 0:43:36 12'06 4561 4755 +194 4831
2 ABISSE Jacques 703 H70 2508FC 0:50:13 13'56 3739 4128 +389 3970
3 RUHLMANN J-Pierre 1916 H70 6804AL 0:50:53 14'08 4047 4074 +27 4025
4 ARNOULD Chantal 3288 D60 8809LO 0:52:28 14'34 3625 3951 +326 4002
5 DEVILLE Nelly 2401 D65 5402LO 0:52:45 14'39 4280 3930 -350 4255
6 FRANTZ Francoise 6886 D65 2904BR 0:54:54 15'15 3386 3776 +390 3672
7 LEMBLE Andre 2263 H70 6701AL 0:57:33 15'59 3954 3602 -352 4075
8 AST Norbert 2512 H70 8809LO 0:58:33 16'15 3149 3541 +392 3528
9 ANTOINE Regis 1276 H70 7108BO 0:58:56 16'22 3596 3518 -78 3619
10 BENACEK Vaclav 2368 H70 6806AL 0:59:37 16'33 3746 3477 -269 3795
11 CHALOPIN Catherine 3674 D60 2105BO 0:59:39 16'34 3781 3475 -306 3784
12 GERBEAUX Marie-jeanne 22417 D60 6205NO 0:59:57 16'39 3180 3458 +278 3302
13 HODSON Michael 2404 H70 5402LO 1:00:02 16'40 3141 3453 +312 3317
14 ROBERT Martine 1087 D60 7004FC 1:00:46 16'52 3203 3412 +209 3638
15 BEGUINOT M-Therese 545 D40 5702LO 1:01:39 17'07 1836 3363 +1527 2885
16 DESAINTJAN Claude 2547 H70 6804AL 1:03:28 17'37 2282 3266 +984 2877
17 DIEUDONNE Madeleine 1380 D65 7808IF 1:03:31 17'38 3965 3264 -701 3930
18 JEANPIERRE M-Therese 3302 D70 8809LO 1:03:32 17'38 3195 3263 +68 3214
19 OUDIN M-Reine 7574 D60 6804AL 1:09:43 19'21 3203 2974 -229 3291
20 EGGLI Margrit 27392 D65 6803AL 1:10:55 19'41 2923 3563
21 MOULIERE M-Bernadette 2888 D70 0207PI 1:11:01 19'43 3485 2919 -566 3376
22 MERIGUET Valérie 16687 D45 7807IF 1:11:15 19'47 3111 2910 -201 3094
23 FISCHER Christiane 27627 D60 6803AL 1:11:32 19'52 2898 2794
24 BELLE Emmanuelle 8258 D40 6205NO 1:13:50 20'30 3258 2808 -450 3196
25 RIFFARD J-Claude 2445 H70 5702LO 1:15:57 21'05 3186 2730 -456 3186
26 RICHARD Nicole 14245 D65 0207PI 1:16:39 21'17 3218 2705 -513 3243
27 TESTOUD Philippe 935 H70 7707IF 1:17:53 21'38 3383 2662 -721 3388
28 FRIZON Louis 17066 H70 5501LO 1:18:34 21'49 2637 2639 +2 2719
29 GIRARD Florence 22478 D45 2508FC 1:18:44 21'52 1701 2633 +932 2365
30 RIFFARD M-Lucie 2446 D70 5702LO 1:19:52 22'11 2413 2596 +183 2452
31 AMIOT Jacques 2611 H70 2516FC 1:20:47 22'26 2671 2566 -105 2715
32 BEGU Aurore 9042 D40 7707IF 1:21:45 22'42 2995 2536 -459 3128
33 PIGER Albert 116 H70 4504CE 1:21:50 22'43 3233 2533 -700 2786
34 LECOYER Annick 2885 D60 0207PI 1:22:29 22'54 2874 2513 -361 2760
35 BAUDOIN Annie 16634 D65 0615AZ 1:23:11 23'06 2605 2492 -113 2770
36 SIMONET Marie 931 D65 7707IF 1:23:15 23'07 2694 2490 -204 2712
37 POGU Paulette 4671 D60 5402LO 1:24:20 23'25 2970 2458 -512 3044
38 ROLLET Marie-Madeleine 2413 D65 5415LO 1:25:42 23'48 2642 2419 -223 2721
39 LEMERCIER Jocelyne 2474 D60 5407LO 1:27:31 24'18 2675 2369 -306 2730
40 DENIS Martine 12377 D65 9404IF 1:27:46 24'22 2649 2362 -287 2678
41 TORZ-DRUON Magali 10081 D60 5906NO 1:30:26 25'07 2480 2292 -188 2472
42 MOUGEL Danielle 7910 D65 8809LO 1:31:12 25'20 2457 2273 -184 2542
43 ABISSE Gisele 701 D70 2508FC 1:31:28 25'24 2835 2267 -568 3247
44 DODIN Genevieve 4392 D65 8809LO 1:38:07 27'15 2468 2113 -355 2487
45 CABON Monique 96 D60 2904BR 1:42:02 28'20 2692 2032 -660 2887
46 PINEAU Noelle 4678 D40 5702LO 1:43:03 28'37 1786 2012 +226 1885
47 AST Claudine 2511 D65 8809LO 1:49:09 30'19 2200 1899 -301 2604
48 PONCE Bernard 971 H70 0801CA 1:52:21 31'12 2296 1845 -451 2528
49 PIGER Ghislaine 117 D70 4504CE 1:53:47 31'36 0 1822 1597
50 THIEBAULT M-Paule 4490 D60 6804AL 1:57:58 32'46 2014 1757 -257 2081
51 AUPERT Stephanie 26656 D40 4201RA 1:59:15 33'07 0 1738 1203
52 BEGUINOT Jacques 1443 H70 5501LO 2:02:55 34'08 1687 1640
53 BASTIEN-FATH Nicole 8954 D65 5402LO 2:02:57 34'09 2188 1686 -502 2258
54 LUDEWIG-JAMES Carol 15894 D70 5907NO 2:06:00 35'00 1949 1645 -304 2000
55 BEGUINOT M-Louise 1444 D70 5501LO 3:11:40 53'14 1352 1082 -270 1281
DESAINTJAN Alice 2546 D70 6804AL pm None 1734 0 1399
ETIENNE Bernadette 15324 D60 8807LO pm None 2622 0 3007